Time;durP1;ratioP1;P1;durP2;ratioP2;P2;SDS_P1;SDS_P2;PMS_P1;PMS_P2;Temp;Humidity;BMP_temperature;BMP_pressure;BME280_temperature;BME280_humidity;BME280_pressure;Samples;Min_cycle;Max_cycle;Signal;HPM_P1;HPM_P2
2024/01/21 00:00:29;;;;;;;305.48;158.80;;;-6.10;1.00;;;;;;6222475;23;20017;-79
2024/01/21 00:02:57;;;;;;;253.48;132.23;;;-6.00;99.90;;;;;;6222883;23;20508;-77
2024/01/21 00:05:25;;;;;;;263.35;137.75;;;-6.20;1.00;;;;;;6222613;23;20013;-77
2024/01/21 00:07:53;;;;;;;241.38;128.10;;;-6.30;99.90;;;;;;6186640;23;20009;-77
2024/01/21 00:10:20;;;;;;;234.23;126.82;;;-6.10;1.00;;;;;;6185965;23;20024;-78
2024/01/21 00:12:48;;;;;;;242.27;125.82;;;-5.90;1.00;;;;;;6223507;23;20021;-78
2024/01/21 00:15:16;;;;;;;221.07;119.97;;;-6.00;92.20;;;;;;6185702;23;20605;-78
2024/01/21 00:17:45;;;;;;;230.23;122.72;;;-6.00;1.00;;;;;;6186519;23;20433;-77
2024/01/21 00:20:13;;;;;;;246.80;131.52;;;-6.10;1.00;;;;;;6186795;23;20096;-78
2024/01/21 00:22:40;;;;;;;210.85;107.78;;;-6.00;1.00;;;;;;6185576;23;20044;-76
2024/01/21 00:25:10;;;;;;;200.77;103.05;;;-6.20;1.00;;;;;;6222911;23;20401;-78
2024/01/21 00:27:38;;;;;;;196.48;110.60;;;-6.20;1.00;;;;;;6223022;23;20055;-78
2024/01/21 00:30:07;;;;;;;201.85;108.55;;;-6.30;1.00;;;;;;6186988;23;20026;-76
2024/01/21 00:32:35;;;;;;;236.43;128.25;;;-6.50;99.90;;;;;;6189171;23;20022;-76
2024/01/21 00:35:04;;;;;;;233.40;126.25;;;-6.40;1.00;;;;;;6193436;23;20013;-78
2024/01/21 00:37:32;;;;;;;214.57;114.60;;;-6.00;99.90;;;;;;6224879;23;20093;-78
2024/01/21 00:40:00;;;;;;;210.90;110.47;;;-5.90;1.00;;;;;;6224887;23;20012;-76
2024/01/21 00:42:27;;;;;;;193.20;102.50;;;-5.80;1.00;;;;;;6225961;23;20028;-76
2024/01/21 00:44:55;;;;;;;166.43;90.72;;;-6.10;99.90;;;;;;6189115;23;20493;-78
2024/01/21 00:47:22;;;;;;;147.75;82.60;;;-6.30;99.90;;;;;;6186755;23;20031;-76
2024/01/21 00:49:50;;;;;;;156.55;85.53;;;-6.40;99.90;;;;;;6222476;23;20048;-79
2024/01/21 00:52:19;;;;;;;152.30;85.43;;;-6.30;1.00;;;;;;6186095;23;20024;-78
2024/01/21 00:54:47;;;;;;;192.88;107.57;;;-6.20;1.00;;;;;;6221798;23;20337;-79
2024/01/21 00:57:15;;;;;;;266.90;142.73;;;-6.30;1.00;;;;;;6222185;23;20017;-77
2024/01/21 00:59:43;;;;;;;278.25;151.02;;;-6.30;1.00;;;;;;6222119;23;20013;-79
2024/01/21 01:02:11;;;;;;;257.25;138.25;;;-6.40;1.00;;;;;;6185988;23;20507;-78
2024/01/21 01:04:39;;;;;;;255.45;136.23;;;-6.40;1.00;;;;;;6184984;23;20020;-78
2024/01/21 01:07:06;;;;;;;237.13;129.27;;;-6.40;1.00;;;;;;6185908;23;20413;-78
2024/01/21 01:09:36;;;;;;;213.45;118.38;;;-6.40;1.00;;;;;;6186090;23;20452;-76
2024/01/21 01:12:04;;;;;;;218.02;117.10;;;-6.40;1.00;;;;;;6185760;23;20024;-78
2024/01/21 01:14:32;;;;;;;234.40;122.00;;;-6.30;1.00;;;;;;6185183;23;20039;-77
2024/01/21 01:16:59;;;;;;;226.70;121.53;;;-6.30;1.00;;;;;;6185774;23;20032;-78
2024/01/21 01:19:27;;;;;;;188.73;103.28;;;-6.20;1.00;;;;;;6223135;23;20016;-78
2024/01/21 01:21:55;;;;;;;200.20;107.65;;;-6.20;99.90;;;;;;6245325;23;20072;-77
2024/01/21 01:24:22;;;;;;;233.23;125.65;;;-6.30;99.90;;;;;;6237593;23;20422;-79
2024/01/21 01:26:51;;;;;;;248.30;127.78;;;-6.20;99.90;;;;;;6191588;23;20096;-76
2024/01/21 01:29:19;;;;;;;240.25;124.35;;;-6.30;99.90;;;;;;6185866;23;20043;-75
2024/01/21 01:31:46;;;;;;;238.02;123.53;;;-6.20;99.90;;;;;;6186204;23;20016;-78
2024/01/21 01:34:14;;;;;;;245.18;124.20;;;-6.30;99.90;;;;;;6223852;23;20040;-77
2024/01/21 01:36:42;;;;;;;222.60;115.95;;;-6.30;99.90;;;;;;6222528;23;20008;-78
2024/01/21 01:39:10;;;;;;;205.60;111.15;;;-6.30;80.90;;;;;;6185664;23;20021;-78
2024/01/21 01:41:38;;;;;;;192.20;103.50;;;-6.40;1.00;;;;;;6185953;23;20104;-78
2024/01/21 01:44:07;;;;;;;174.20;94.80;;;-6.50;99.90;;;;;;6185152;23;20048;-77
2024/01/21 01:46:34;;;;;;;172.57;94.28;;;-6.60;99.90;;;;;;6186127;23;20474;-79
2024/01/21 01:49:02;;;;;;;150.40;85.25;;;-6.50;99.90;;;;;;6156316;23;20026;-75
2024/01/21 01:51:32;;;;;;;160.43;88.30;;;-6.40;1.00;;;;;;6135579;23;20017;-74
2024/01/21 01:54:00;;;;;;;174.50;95.28;;;-6.30;1.00;;;;;;6134431;23;20022;-74
2024/01/21 01:56:28;;;;;;;154.45;85.60;;;-6.10;99.90;;;;;;6133451;23;20061;-74
2024/01/21 01:58:55;;;;;;;163.10;90.97;;;-6.30;99.90;;;;;;6146686;23;20041;-75
2024/01/21 02:01:25;;;;;;;157.80;88.47;;;-6.30;99.90;;;;;;6135794;23;20018;-76
2024/01/21 02:03:53;;;;;;;157.95;86.63;;;-6.30;99.90;;;;;;6136571;23;20018;-74
2024/01/21 02:06:20;;;;;;;153.65;84.05;;;-6.40;99.90;;;;;;6148435;23;20018;-74
2024/01/21 02:08:48;;;;;;;151.77;81.68;;;-6.50;99.90;;;;;;6134236;23;20029;-76
2024/01/21 02:11:18;;;;;;;153.07;86.78;;;-6.70;99.90;;;;;;6133580;23;20018;-75
2024/01/21 02:13:45;;;;;;;164.05;89.97;;;-6.70;1.00;;;;;;6122439;23;20531;-75
2024/01/21 02:16:13;;;;;;;165.10;89.78;;;-6.70;1.00;;;;;;6123070;23;20018;-75
2024/01/21 02:18:45;;;;;;;170.35;91.80;;;-6.60;1.00;;;;;;6134712;23;20018;-74
2024/01/21 02:21:13;;;;;;;170.57;92.20;;;-6.60;1.00;;;;;;6123332;23;20045;-75
2024/01/21 02:23:42;;;;;;;173.57;92.95;;;-6.60;1.00;;;;;;6133561;23;20093;-74
2024/01/21 02:26:09;;;;;;;161.00;86.90;;;-6.50;1.00;;;;;;6133692;23;20048;-75
2024/01/21 02:28:37;;;;;;;149.55;79.70;;;-6.40;1.00;;;;;;6134174;23;20124;-74
2024/01/21 02:31:05;;;;;;;134.35;76.32;;;-6.40;99.90;;;;;;6120215;23;20022;-74
2024/01/21 02:33:32;;;;;;;141.57;73.30;;;-6.60;99.90;;;;;;6127653;23;20029;-74
2024/01/21 02:36:00;;;;;;;124.35;67.07;;;-6.60;99.90;;;;;;6142026;23;20014;-75
2024/01/21 02:38:27;;;;;;;117.55;66.35;;;-6.50;99.90;;;;;;6133656;23;20036;-75
2024/01/21 02:40:56;;;;;;;118.07;67.07;;;-6.50;99.90;;;;;;6133431;23;20018;-76
2024/01/21 02:43:24;;;;;;;144.70;75.50;;;-6.40;99.90;;;;;;6133217;23;20010;-75
2024/01/21 02:45:52;;;;;;;142.70;76.97;;;-6.40;99.90;;;;;;6134203;23;20018;-75
2024/01/21 02:48:20;;;;;;;134.10;72.75;;;-6.30;99.90;;;;;;6124113;23;20022;-75
2024/01/21 02:50:47;;;;;;;123.25;69.93;;;-6.30;1.00;;;;;;6129105;23;20022;-74
2024/01/21 02:53:15;;;;;;;113.97;64.25;;;-6.30;1.00;;;;;;6122483;23;20022;-73
2024/01/21 02:55:42;;;;;;;118.97;66.32;;;-6.10;6.60;;;;;;6132414;23;20029;-74
2024/01/21 02:58:11;;;;;;;117.03;65.75;;;-6.00;1.00;;;;;;6121289;23;20030;-75
2024/01/21 03:00:39;;;;;;;121.65;66.40;;;-6.00;1.00;;;;;;6133998;23;20018;-77
2024/01/21 03:03:06;;;;;;;120.22;66.28;;;-5.90;1.00;;;;;;6134008;23;20010;-74
2024/01/21 03:05:34;;;;;;;120.03;67.47;;;-5.80;1.00;;;;;;6124546;23;20080;-74
2024/01/21 03:08:01;;;;;;;122.55;67.35;;;-5.90;1.00;;;;;;6125688;23;20080;-76
2024/01/21 03:10:29;;;;;;;127.28;72.32;;;-6.00;1.00;;;;;;6136274;23;20085;-76
2024/01/21 03:12:56;;;;;;;158.88;84.95;;;-6.00;1.00;;;;;;6126857;23;20034;-74
2024/01/21 03:15:25;;;;;;;133.73;74.97;;;-5.90;1.00;;;;;;6132279;23;20044;-75
2024/01/21 03:17:53;;;;;;;143.02;75.15;;;-5.80;1.00;;;;;;6128109;23;20014;-74
2024/01/21 03:20:20;;;;;;;146.45;79.13;;;-5.80;1.00;;;;;;6158522;23;20014;-74
2024/01/21 03:22:48;;;;;;;150.95;84.95;;;-5.60;1.00;;;;;;6158059;23;20022;-76
2024/01/21 03:25:15;;;;;;;154.65;84.55;;;-5.80;1.00;;;;;;6157675;23;20441;-75
2024/01/21 03:27:42;;;;;;;151.75;85.90;;;-5.80;1.00;;;;;;6129748;23;20029;-76
2024/01/21 03:30:11;;;;;;;131.52;72.35;;;-5.80;1.00;;;;;;6121568;23;20026;-74
2024/01/21 03:32:40;;;;;;;119.40;68.25;;;-5.80;1.00;;;;;;6131091;23;20017;-76
2024/01/21 03:35:08;;;;;;;117.15;66.13;;;-5.80;1.00;;;;;;6121097;23;20018;-76
2024/01/21 03:37:35;;;;;;;123.38;67.75;;;-5.70;1.00;;;;;;6132700;23;20010;-76
2024/01/21 03:40:05;;;;;;;130.43;72.50;;;-5.60;1.00;;;;;;6122239;23;20022;-75
2024/01/21 03:42:32;;;;;;;140.15;78.32;;;-5.60;1.00;;;;;;6122774;23;20098;-75
2024/01/21 03:45:00;;;;;;;149.07;83.75;;;-5.60;1.00;;;;;;6133662;23;20045;-75
2024/01/21 03:47:27;;;;;;;151.38;79.40;;;-5.60;1.00;;;;;;6134174;23;20443;-75
2024/01/21 03:49:56;;;;;;;157.93;84.97;;;-5.50;1.00;;;;;;6163142;23;20213;-75
2024/01/21 03:52:23;;;;;;;153.82;81.53;;;-5.40;99.90;;;;;;6128433;23;20083;-75
2024/01/21 03:54:51;;;;;;;167.45;87.53;;;-5.40;84.80;;;;;;6165301;23;20084;-72
2024/01/21 03:57:18;;;;;;;170.38;81.72;;;-5.50;99.90;;;;;;6129377;23;20017;-75
2024/01/21 03:59:46;;;;;;;191.32;88.00;;;-5.50;1.00;;;;;;6149569;23;20017;-77
2024/01/21 04:02:13;;;;;;;184.23;82.95;;;-5.40;93.70;;;;;;6156628;23;20029;-76
2024/01/21 04:04:41;;;;;;;159.68;80.60;;;-5.40;99.90;;;;;;6191661;23;20024;-76
2024/01/21 04:07:09;;;;;;;158.40;79.00;;;-5.20;1.00;;;;;;6188817;23;20018;-75
2024/01/21 04:09:37;;;;;;;161.63;73.97;;;-5.10;99.90;;;;;;6130083;23;20025;-76
2024/01/21 04:12:05;;;;;;;146.68;71.90;;;-4.90;99.90;;;;;;6128640;23;20029;-75
2024/01/21 04:14:32;;;;;;;159.27;73.50;;;-4.90;99.90;;;;;;6163334;23;20021;-75
2024/01/21 04:17:00;;;;;;;170.57;75.75;;;-4.90;1.00;;;;;;6127664;23;20350;-75
2024/01/21 04:19:28;;;;;;;162.18;72.30;;;-4.80;1.00;;;;;;6133665;23;20636;-74
2024/01/21 04:21:55;;;;;;;165.10;74.35;;;-4.80;99.90;;;;;;6130186;23;20018;-76
2024/01/21 04:24:24;;;;;;;175.80;76.72;;;-4.90;17.80;;;;;;6176185;23;20022;-75
2024/01/21 04:26:51;;;;;;;158.80;71.07;;;-4.90;1.00;;;;;;6142279;23;20021;-76
2024/01/21 04:29:19;;;;;;;175.25;81.38;;;-4.80;76.40;;;;;;6164215;23;20080;-76
2024/01/21 04:31:46;;;;;;;177.45;77.25;;;-4.90;1.00;;;;;;6128190;23;20080;-75
2024/01/21 04:34:14;;;;;;;164.65;80.18;;;-4.80;1.00;;;;;;6167902;23;20009;-75
2024/01/21 04:36:41;;;;;;;172.27;81.15;;;-4.70;1.00;;;;;;6151047;23;20017;-75
2024/01/21 04:39:09;;;;;;;190.50;81.43;;;-4.80;1.00;;;;;;6141894;23;20077;-75
2024/01/21 04:41:38;;;;;;;188.77;83.85;;;-4.80;99.90;;;;;;6145635;23;20023;-74
2024/01/21 04:44:05;;;;;;;160.45;80.85;;;-4.80;1.00;;;;;;6182991;23;20024;-74
2024/01/21 04:46:33;;;;;;;150.77;73.65;;;-4.70;99.90;;;;;;6149050;23;20028;-74
2024/01/21 04:49:00;;;;;;;140.25;63.90;;;-4.70;1.00;;;;;;6136979;23;20057;-73
2024/01/21 04:51:28;;;;;;;134.73;66.00;;;-4.80;1.00;;;;;;6126165;23;20021;-74
2024/01/21 04:53:56;;;;;;;176.20;71.53;;;-4.80;99.90;;;;;;6150074;23;20013;-75
2024/01/21 04:56:23;;;;;;;146.95;67.93;;;-4.60;1.00;;;;;;6158563;23;20010;-75
2024/01/21 04:58:52;;;;;;;162.27;72.50;;;-4.40;1.00;;;;;;6159541;23;20070;-76
2024/01/21 05:01:22;;;;;;;133.73;64.78;;;-4.30;1.00;;;;;;6159329;23;19998;-76
2024/01/21 05:03:50;;;;;;;117.35;55.47;;;-4.30;1.00;;;;;;6142895;23;20032;-74
2024/01/21 05:06:18;;;;;;;120.07;55.65;;;-4.40;99.90;;;;;;6147500;23;20033;-74
2024/01/21 05:08:45;;;;;;;130.95;57.00;;;-4.50;1.00;;;;;;6134112;23;20081;-76
2024/01/21 05:11:14;;;;;;;114.60;56.13;;;-4.50;1.00;;;;;;6123703;23;20018;-74
2024/01/21 05:13:42;;;;;;;144.85;58.63;;;-4.40;99.90;;;;;;6135240;23;20014;-73
2024/01/21 05:16:11;;;;;;;101.53;53.10;;;-4.40;99.90;;;;;;6123838;23;20041;-73
2024/01/21 05:18:39;;;;;;;159.00;60.70;;;-4.40;99.90;;;;;;6125374;23;20018;-73
2024/01/21 05:21:07;;;;;;;158.45;64.75;;;-4.40;1.00;;;;;;6134436;23;20018;-75
2024/01/21 05:23:34;;;;;;;120.97;57.22;;;-4.60;1.00;;;;;;6133879;23;20018;-74
2024/01/21 05:26:02;;;;;;;124.60;59.95;;;-4.70;1.00;;;;;;6140199;23;20010;-74
2024/01/21 05:28:30;;;;;;;176.70;74.60;;;-4.60;1.00;;;;;;6122434;23;20036;-74
2024/01/21 05:30:57;;;;;;;158.02;71.95;;;-4.70;1.00;;;;;;6135901;23;20092;-73
2024/01/21 05:33:26;;;;;;;173.18;72.90;;;-4.70;1.00;;;;;;6123594;23;20017;-74
2024/01/21 05:35:53;;;;;;;150.57;65.32;;;-4.80;1.00;;;;;;6124929;23;20268;-75
2024/01/21 05:38:21;;;;;;;160.75;68.22;;;-4.90;99.90;;;;;;6128640;23;20128;-75
2024/01/21 05:40:48;;;;;;;211.18;70.90;;;-5.00;1.00;;;;;;6150364;23;20037;-74
2024/01/21 05:43:17;;;;;;;123.25;59.80;;;-5.00;99.90;;;;;;6140772;23;20040;-75
2024/01/21 05:45:45;;;;;;;128.15;61.08;;;-5.10;99.90;;;;;;6139959;23;20020;-76
2024/01/21 05:48:13;;;;;;;117.78;58.50;;;-4.90;1.00;;;;;;6125499;23;20060;-74
2024/01/21 05:50:42;;;;;;;120.88;57.10;;;-4.90;1.00;;;;;;6127339;23;20075;-75
2024/01/21 05:53:09;;;;;;;131.38;62.00;;;-4.80;1.00;;;;;;6136315;23;20048;-74
2024/01/21 05:55:37;;;;;;;142.57;61.38;;;-4.80;1.00;;;;;;6138644;23;20014;-74
2024/01/21 05:58:05;;;;;;;150.00;65.32;;;-4.90;99.90;;;;;;6124376;23;20101;-75
2024/01/21 06:00:32;;;;;;;136.50;63.30;;;-5.00;99.90;;;;;;6144489;23;20018;-73
2024/01/21 06:03:00;;;;;;;131.77;64.30;;;-5.10;1.00;;;;;;6135542;23;20033;-74
2024/01/21 06:05:30;;;;;;;142.65;66.65;;;-5.10;72.10;;;;;;6122930;23;20025;-75
2024/01/21 06:07:59;;;;;;;153.90;72.18;;;-5.10;99.90;;;;;;6137456;23;20014;-75
2024/01/21 06:10:27;;;;;;;160.05;74.90;;;-5.20;1.00;;;;;;6132804;23;20045;-75
2024/01/21 06:12:54;;;;;;;150.07;77.15;;;-5.20;99.90;;;;;;6130519;23;20025;-75
2024/01/21 06:15:22;;;;;;;137.77;68.75;;;-5.10;99.90;;;;;;6141278;23;20010;-74
2024/01/21 06:17:51;;;;;;;127.20;61.28;;;-5.00;99.90;;;;;;6123470;23;20022;-74
2024/01/21 06:20:20;;;;;;;119.13;61.92;;;-4.80;99.90;;;;;;6122547;23;20046;-74
2024/01/21 06:22:47;;;;;;;133.75;60.67;;;-4.70;1.00;;;;;;6123740;23;20068;-75
2024/01/21 06:25:17;;;;;;;168.15;67.85;;;-4.70;99.90;;;;;;6124384;23;20093;-73
2024/01/21 06:27:44;;;;;;;112.95;57.05;;;-4.70;99.90;;;;;;6134282;23;20072;-76
2024/01/21 06:30:13;;;;;;;113.22;57.35;;;-4.60;1.00;;;;;;6139134;23;20435;-75
2024/01/21 06:32:40;;;;;;;118.63;60.95;;;-5.00;99.90;;;;;;6136619;23;20014;-73
2024/01/21 06:35:09;;;;;;;116.32;61.38;;;-4.90;99.90;;;;;;6133246;23;20068;-75
2024/01/21 06:37:37;;;;;;;115.10;60.10;;;-4.80;99.90;;;;;;6122350;23;20014;-76
2024/01/21 06:40:05;;;;;;;118.85;61.72;;;-4.70;99.90;;;;;;6124166;23;20026;-74
2024/01/21 06:42:34;;;;;;;118.20;59.28;;;-4.60;99.90;;;;;;6127797;23;20101;-74
2024/01/21 06:45:02;;;;;;;130.38;63.80;;;-4.70;66.40;;;;;;6128290;23;20024;-73
2024/01/21 06:47:30;;;;;;;114.65;61.58;;;-4.60;69.40;;;;;;6122175;23;20032;-74
2024/01/21 06:49:57;;;;;;;125.93;65.15;;;-4.70;1.00;;;;;;6161973;23;20029;-75
2024/01/21 06:52:26;;;;;;;166.38;80.15;;;-4.90;99.90;;;;;;6127160;23;20037;-75
2024/01/21 06:54:54;;;;;;;150.30;74.05;;;-4.90;1.00;;;;;;6126863;23;20017;-76
2024/01/21 06:57:22;;;;;;;131.90;69.70;;;-4.90;1.00;;;;;;6127336;23;20017;-76
2024/01/21 06:59:51;;;;;;;141.68;74.38;;;-4.90;1.00;;;;;;6127532;23;20032;-74
2024/01/21 07:02:19;;;;;;;144.20;69.80;;;-4.90;99.90;;;;;;6168142;23;20009;-74
2024/01/21 07:04:46;;;;;;;141.90;71.47;;;-5.00;99.90;;;;;;6139243;23;20014;-74
2024/01/21 07:07:14;;;;;;;137.73;70.63;;;-4.90;99.90;;;;;;6147475;23;20041;-77
2024/01/21 07:09:42;;;;;;;160.13;75.75;;;-4.80;1.00;;;;;;6185190;23;20040;-75
2024/01/21 07:12:09;;;;;;;146.95;73.55;;;-5.00;1.00;;;;;;6141926;23;20077;-77
2024/01/21 07:14:37;;;;;;;145.43;72.22;;;-5.10;1.00;;;;;;6151356;23;20077;-75
2024/01/21 07:17:06;;;;;;;155.43;81.13;;;-4.90;99.90;;;;;;6151468;23;20655;-75
2024/01/21 07:19:33;;;;;;;182.60;84.95;;;-4.90;99.90;;;;;;6151173;23;20055;-75
2024/01/21 07:22:01;;;;;;;158.77;78.55;;;-4.80;99.90;;;;;;6151784;23;20032;-77
2024/01/21 07:24:29;;;;;;;176.02;86.32;;;-4.70;1.00;;;;;;6151275;23;20028;-74
2024/01/21 07:26:56;;;;;;;149.25;73.57;;;-4.80;1.00;;;;;;6153637;23;20012;-75
2024/01/21 07:29:24;;;;;;;151.05;73.97;;;-4.70;1.00;;;;;;6151562;23;20053;-75
2024/01/21 07:31:51;;;;;;;155.75;69.20;;;-4.60;1.00;;;;;;6185852;23;20009;-75
2024/01/21 07:34:22;;;;;;;157.27;73.22;;;-4.50;99.90;;;;;;6146689;23;20073;-76
2024/01/21 07:36:50;;;;;;;163.88;71.97;;;-4.60;1.00;;;;;;6177994;23;20014;-76
2024/01/21 07:39:57;;;;;;;150.80;69.55;;;-4.60;1.00;;;;;;6171807;23;20025;-77
2024/01/21 07:42:24;;;;;;;139.90;65.10;;;-4.60;99.90;;;;;;6129592;23;20211;-75
2024/01/21 07:44:51;;;;;;;137.48;66.78;;;-4.70;1.00;;;;;;6128932;23;20025;-76
2024/01/21 07:47:19;;;;;;;157.38;72.65;;;-4.80;1.00;;;;;;6166210;23;20021;-74
2024/01/21 07:49:48;;;;;;;150.88;72.32;;;-4.80;99.90;;;;;;6171187;23;20028;-75
2024/01/21 07:52:16;;;;;;;145.00;72.22;;;-4.50;1.00;;;;;;6164315;23;20018;-76
2024/01/21 07:54:44;;;;;;;164.13;74.30;;;-4.40;1.00;;;;;;6128231;23;20025;-76
2024/01/21 07:57:14;;;;;;;139.25;69.70;;;-4.20;1.00;;;;;;6128920;23;20041;-75
2024/01/21 07:59:42;;;;;;;151.13;75.20;;;-4.10;1.00;;;;;;6128524;23;20036;-75
2024/01/21 08:02:12;;;;;;;162.20;74.53;;;-3.90;1.00;;;;;;6128055;23;20509;-73
2024/01/21 08:04:40;;;;;;;141.57;66.13;;;-3.80;99.90;;;;;;6128320;23;20025;-74
2024/01/21 08:07:09;;;;;;;148.45;67.00;;;-3.70;1.00;;;;;;6165551;23;20013;-75
2024/01/21 08:09:37;;;;;;;133.50;62.35;;;-3.70;99.90;;;;;;6164457;23;20048;-75
2024/01/21 08:12:06;;;;;;;158.18;71.72;;;-3.60;17.40;;;;;;6128648;23;20021;-75
2024/01/21 08:14:34;;;;;;;167.95;71.15;;;-3.90;1.00;;;;;;6165051;23;20450;-74
2024/01/21 08:17:02;;;;;;;164.40;75.63;;;-4.00;99.90;;;;;;6129348;23;20096;-77
2024/01/21 08:19:30;;;;;;;146.77;72.25;;;-4.10;30.10;;;;;;6165188;23;20036;-75
2024/01/21 08:21:57;;;;;;;154.40;73.40;;;-3.90;1.00;;;;;;6166464;23;20097;-76
2024/01/21 08:24:28;;;;;;;134.82;67.93;;;-3.80;99.90;;;;;;6130929;23;20446;-73
2024/01/21 08:26:55;;;;;;;151.43;69.47;;;-3.50;99.90;;;;;;6174725;23;19997;-75
2024/01/21 08:29:23;;;;;;;148.07;71.63;;;-3.30;1.00;;;;;;6185196;23;20022;-76
2024/01/21 08:31:51;;;;;;;136.85;68.13;;;-3.10;1.00;;;;;;6166759;23;20117;-74
2024/01/21 08:34:18;;;;;;;137.88;67.22;;;-3.20;99.90;;;;;;6163537;23;20017;-73
2024/01/21 08:36:46;;;;;;;128.48;67.22;;;-3.40;99.90;;;;;;6130638;23;20018;-75
2024/01/21 08:39:14;;;;;;;136.48;67.38;;;-3.60;1.00;;;;;;6128077;23;20014;-76
2024/01/21 08:41:43;;;;;;;157.95;73.90;;;-3.40;1.00;;;;;;6129141;23;20021;-74
2024/01/21 08:44:11;;;;;;;167.88;86.57;;;-3.50;1.00;;;;;;6129297;23;20027;-75
2024/01/21 08:46:38;;;;;;;203.70;99.70;;;-3.60;99.90;;;;;;6170011;23;20072;-76
2024/01/21 08:49:06;;;;;;;216.73;107.35;;;-3.50;1.00;;;;;;6178561;23;20029;-76
2024/01/21 08:51:33;;;;;;;218.45;108.95;;;-3.50;1.00;;;;;;6181393;23;20242;-75
2024/01/21 08:54:01;;;;;;;209.50;103.03;;;-3.10;99.90;;;;;;6137271;23;20021;-76
2024/01/21 08:56:28;;;;;;;199.40;101.05;;;-3.10;1.00;;;;;;6129704;23;20025;-76
2024/01/21 08:58:57;;;;;;;198.25;95.32;;;-3.00;99.90;;;;;;6127210;23;20073;-75
2024/01/21 09:01:26;;;;;;;167.50;84.38;;;-2.70;99.90;;;;;;6126929;23;20018;-74
2024/01/21 09:03:54;;;;;;;166.82;83.55;;;-2.90;1.00;;;;;;6125866;23;20027;-74
2024/01/21 09:06:21;;;;;;;166.25;85.85;;;-2.90;99.90;;;;;;6164089;23;20018;-75
2024/01/21 09:08:53;;;;;;;159.43;84.47;;;-2.70;99.90;;;;;;6164641;23;20032;-75
2024/01/21 09:11:23;;;;;;;158.80;84.53;;;-2.50;1.00;;;;;;6163437;23;20076;-74
2024/01/21 09:13:51;;;;;;;143.50;76.28;;;-2.50;1.00;;;;;;6163804;23;20489;-75
2024/01/21 09:16:20;;;;;;;130.95;70.50;;;-2.40;1.00;;;;;;6130263;23;20037;-75
2024/01/21 09:18:47;;;;;;;150.68;79.13;;;-2.40;1.00;;;;;;6130194;23;20049;-76
2024/01/21 09:21:15;;;;;;;139.55;73.05;;;-2.20;1.00;;;;;;6148602;23;20021;-76
2024/01/21 09:23:43;;;;;;;137.77;71.85;;;-2.30;1.00;;;;;;6150261;23;20073;-76
2024/01/21 09:26:10;;;;;;;147.68;78.13;;;-2.40;1.00;;;;;;6147060;23;20017;-74
2024/01/21 09:28:38;;;;;;;148.15;81.22;;;-2.40;1.00;;;;;;6171477;23;20089;-74
2024/01/21 09:31:09;;;;;;;133.75;74.45;;;-2.30;1.00;;;;;;6129932;23;20020;-74
2024/01/21 09:33:38;;;;;;;134.00;74.68;;;-2.30;10.40;;;;;;6168672;23;20072;-77
2024/01/21 09:36:07;;;;;;;123.45;67.85;;;-2.20;99.90;;;;;;6130589;23;20088;-75
2024/01/21 09:38:34;;;;;;;127.43;71.20;;;-2.20;99.90;;;;;;6167141;23;20084;-74
2024/01/21 09:41:13;;;;;;;135.15;72.00;;;-2.20;1.00;;;;;;6129684;23;20208;-74
2024/01/21 09:43:42;;;;;;;123.13;67.90;;;-2.10;1.00;;;;;;6128049;23;20025;-73
2024/01/21 09:46:12;;;;;;;124.45;69.45;;;-2.10;99.90;;;;;;6164015;23;20021;-74
2024/01/21 09:48:43;;;;;;;122.32;68.25;;;-2.00;99.90;;;;;;6121935;23;20058;-74
2024/01/21 09:51:10;;;;;;;100.05;54.75;;;-1.90;99.90;;;;;;6123044;23;20022;-74
2024/01/21 09:53:38;;;;;;;104.38;57.08;;;-1.70;99.90;;;;;;6134682;23;20018;-76
2024/01/21 09:56:08;;;;;;;90.60;50.50;;;-1.70;1.00;;;;;;6134254;23;20447;-74
2024/01/21 09:58:45;;;;;;;91.03;52.92;;;-1.70;1.00;;;;;;6127662;23;20017;-76
2024/01/21 10:01:12;;;;;;;97.20;54.75;;;-1.50;1.00;;;;;;6137897;23;20014;-79
2024/01/21 10:03:41;;;;;;;104.25;55.30;;;-1.30;1.00;;;;;;6141379;23;20347;-77
2024/01/21 10:06:10;;;;;;;103.97;55.58;;;-1.20;99.90;;;;;;6135451;23;20018;-75
2024/01/21 10:08:38;;;;;;;102.32;53.38;;;-1.20;99.90;;;;;;6134853;23;20018;-74
2024/01/21 10:11:06;;;;;;;97.10;51.67;;;-1.10;99.90;;;;;;6123116;23;20057;-74
2024/01/21 10:13:36;;;;;;;93.47;50.47;;;-0.90;99.90;;;;;;6122677;23;20022;-75
2024/01/21 10:16:04;;;;;;;85.50;46.40;;;-0.70;59.30;;;;;;6134755;23;20018;-74
2024/01/21 10:18:32;;;;;;;92.55;48.75;;;-0.50;1.00;;;;;;6134348;23;20024;-76
2024/01/21 10:21:06;;;;;;;104.15;54.60;;;-0.40;1.00;;;;;;6123429;23;20068;-75
2024/01/21 10:23:33;;;;;;;118.60;61.80;;;-0.30;1.00;;;;;;6122486;23;20026;-75
2024/01/21 10:26:01;;;;;;;111.50;61.45;;;-0.30;1.00;;;;;;6142032;23;20089;-76
2024/01/21 10:28:32;;;;;;;116.88;63.33;;;-0.30;1.00;;;;;;6145210;23;20019;-75
2024/01/21 10:31:00;;;;;;;125.80;66.60;;;-0.10;1.00;;;;;;6144054;23;20451;-75
2024/01/21 10:33:27;;;;;;;133.52;70.65;;;0.00;1.00;;;;;;6144301;23;20097;-77
2024/01/21 10:35:57;;;;;;;131.18;67.72;;;0.20;1.00;;;;;;6145235;23;20016;-75
2024/01/21 10:38:29;;;;;;;129.60;68.68;;;0.20;1.00;;;;;;6133522;23;20061;-75
2024/01/21 10:40:57;;;;;;;135.25;74.20;;;0.30;1.00;;;;;;6132346;23;20042;-75
2024/01/21 10:43:25;;;;;;;131.73;69.20;;;0.30;99.90;;;;;;6147667;23;20022;-74
2024/01/21 10:45:54;;;;;;;149.00;81.57;;;0.40;99.90;;;;;;6135703;23;20037;-73
2024/01/21 10:48:24;;;;;;;132.32;72.18;;;0.50;99.90;;;;;;6133628;23;20065;-75
2024/01/21 10:50:52;;;;;;;140.23;74.63;;;0.50;99.90;;;;;;6150787;23;20021;-74
2024/01/21 10:53:23;;;;;;;138.90;75.63;;;0.70;99.90;;;;;;6141070;23;20045;-76
2024/01/21 10:55:53;;;;;;;149.15;79.10;;;0.70;99.90;;;;;;6150488;23;20018;-73
2024/01/21 10:58:21;;;;;;;143.05;79.82;;;0.90;99.90;;;;;;6154188;23;20014;-75
2024/01/21 11:00:50;;;;;;;134.95;76.22;;;1.10;99.90;;;;;;6136786;23;20025;-74
2024/01/21 11:03:26;;;;;;;149.85;77.30;;;1.20;99.90;;;;;;6130220;23;20029;-74
2024/01/21 11:05:54;;;;;;;;;;;1.20;1.80;;;;;;6137377;23;20511;-75
2024/01/21 11:08:24;;;;;;;121.78;65.05;;;1.20;48.00;;;;;;6126020;23;19917;-75
2024/01/21 11:11:14;;;;;;;111.07;61.53;;;1.30;31.10;;;;;;6127360;23;20022;-74
2024/01/21 11:13:43;;;;;;;106.32;58.50;;;1.40;5.90;;;;;;6128928;23;20082;-75
2024/01/21 11:16:12;;;;;;;100.57;52.50;;;1.40;8.10;;;;;;6130699;23;20018;-76
2024/01/21 11:18:42;;;;;;;101.32;54.20;;;1.40;1.00;;;;;;6133956;23;20033;-75
2024/01/21 11:21:10;;;;;;;105.63;56.13;;;1.50;1.00;;;;;;6143918;23;20124;-75
2024/01/21 11:23:38;;;;;;;110.10;59.30;;;1.60;1.00;;;;;;6142230;23;20032;-73
2024/01/21 11:26:25;;;;;;;119.18;60.58;;;1.60;1.00;;;;;;6128385;23;20379;-78
2024/01/21 11:28:53;;;;;;;113.10;57.70;;;1.60;1.00;;;;;;6128573;23;20105;-75
2024/01/21 11:31:21;;;;;;;110.15;56.20;;;1.70;1.00;;;;;;6138401;23;20057;-74
2024/01/21 11:34:06;;;;;;;99.18;53.53;;;1.80;1.00;;;;;;6137573;23;20018;-77
2024/01/21 11:36:34;;;;;;;88.80;46.28;;;1.80;1.00;;;;;;6126393;23;20447;-74
2024/01/21 11:39:02;;;;;;;102.80;51.85;;;1.80;1.00;;;;;;6136943;23;20034;-75
2024/01/21 11:41:39;;;;;;;107.63;56.25;;;1.80;1.00;;;;;;6125507;23;20025;-75
2024/01/21 11:44:11;;;;;;;110.60;57.75;;;1.70;1.00;;;;;;6125369;23;20101;-75
2024/01/21 11:46:40;;;;;;;122.18;62.33;;;1.50;1.00;;;;;;6137531;23;20038;-75
2024/01/21 11:49:09;;;;;;;129.35;71.05;;;1.60;1.00;;;;;;6154311;23;20036;-76
2024/01/21 11:51:36;;;;;;;131.82;68.35;;;1.60;1.00;;;;;;6166161;23;20096;-75
2024/01/21 11:54:04;;;;;;;134.65;66.75;;;1.70;1.30;;;;;;6129370;23;20239;-75
2024/01/21 11:56:33;;;;;;;131.88;65.63;;;1.90;3.20;;;;;;6148220;23;20048;-75
2024/01/21 11:59:01;;;;;;;143.23;73.70;;;2.00;1.00;;;;;;6151597;23;20085;-76
2024/01/21 12:01:30;;;;;;;144.70;74.95;;;2.10;1.00;;;;;;6184598;23;20017;-74
2024/01/21 12:03:58;;;;;;;145.93;73.53;;;2.20;1.00;;;;;;6165908;23;20092;-77
2024/01/21 12:06:25;;;;;;;138.35;70.47;;;2.30;1.00;;;;;;6137568;23;20029;-76
2024/01/21 12:08:53;;;;;;;138.75;68.25;;;2.50;1.00;;;;;;6151546;23;20045;-75
2024/01/21 12:11:21;;;;;;;134.05;67.20;;;2.50;1.00;;;;;;6152239;23;20032;-75
2024/01/21 12:13:50;;;;;;;135.02;64.70;;;2.40;1.00;;;;;;6150189;23;20442;-77
2024/01/21 12:16:18;;;;;;;128.25;61.92;;;2.40;1.00;;;;;;6174487;23;20017;-74
2024/01/21 12:18:46;;;;;;;124.65;63.22;;;2.30;1.00;;;;;;6128854;23;20077;-75
2024/01/21 12:21:14;;;;;;;126.10;63.35;;;2.10;99.90;;;;;;6128146;23;20021;-73
2024/01/21 12:23:41;;;;;;;120.60;61.20;;;2.00;99.90;;;;;;6164184;23;20354;-74
2024/01/21 12:26:09;;;;;;;111.55;57.15;;;2.10;99.90;;;;;;6128258;23;20048;-73
2024/01/21 12:28:36;;;;;;;117.57;59.40;;;2.30;76.30;;;;;;6164448;23;20017;-74